createdAt,value
2022-08-07T00:01:44.565Z,102899.47
2022-08-07T00:04:03.499Z,102901.59
2022-08-07T00:06:33.521Z,102891.53
2022-08-07T00:09:17.026Z,102891.19
2022-08-07T00:11:55.585Z,102890.84
2022-08-07T00:14:30.339Z,102889.19
2022-08-07T00:17:01.962Z,102882.63
2022-08-07T00:20:00.240Z,102877.75
2022-08-07T00:22:24.559Z,102885.22
2022-08-07T00:25:01.858Z,102881.94
2022-08-07T00:27:29.448Z,102877.28
2022-08-07T00:30:21.678Z,102874.00
2022-08-07T00:32:56.651Z,102870.13
2022-08-07T00:35:23.554Z,102871.88
2022-08-07T00:37:50.889Z,102860.66
2022-08-07T00:40:39.029Z,102869.78
2022-08-07T00:43:04.388Z,102864.28
2022-08-07T00:45:36.603Z,102864.78
2022-08-07T00:48:18.221Z,102858.22
2022-08-07T00:50:50.503Z,102866.28
2022-08-07T00:53:18.238Z,102858.56
2022-08-07T00:56:03.180Z,102865.94
2022-08-07T00:58:32.442Z,102854.22
2022-08-07T01:00:59.451Z,102858.22
2022-08-07T01:03:56.734Z,102852.84
2022-08-07T01:06:13.510Z,102852.84
2022-08-07T01:08:51.394Z,102852.50
2022-08-07T01:12:04.688Z,102858.09
2022-08-07T01:14:09.028Z,102856.22
2022-08-07T01:16:36.794Z,102857.03
2022-08-07T01:19:18.062Z,102849.22
2022-08-07T01:21:46.942Z,102848.84
2022-08-07T01:24:14.321Z,102844.41
2022-08-07T01:26:51.528Z,102843.81
2022-08-07T01:29:19.193Z,102851.28
2022-08-07T01:31:48.275Z,102848.47
2022-08-07T01:34:17.727Z,102849.19
2022-08-07T01:36:52.543Z,102845.31
2022-08-07T01:39:40.702Z,102852.78
2022-08-07T01:42:39.491Z,102848.69
2022-08-07T01:45:09.853Z,102853.13
2022-08-07T01:48:19.231Z,102839.53
2022-08-07T01:50:30.396Z,102840.00
2022-08-07T01:52:59.982Z,102837.72
2022-08-07T01:55:36.457Z,102834.63
2022-08-07T01:58:29.597Z,102843.50
2022-08-07T02:01:10.046Z,102836.59
2022-08-07T02:03:55.904Z,102833.91
2022-08-07T02:06:31.229Z,102834.75
2022-08-07T02:09:03.819Z,102844.09
2022-08-07T02:12:02.607Z,102845.78
2022-08-07T02:14:36.014Z,102832.47
2022-08-07T02:17:07.319Z,102833.53
2022-08-07T02:20:07.444Z,102829.19
2022-08-07T02:22:25.912Z,102835.38
2022-08-07T02:24:54.615Z,102831.19
2022-08-07T02:27:23.931Z,102828.84
2022-08-07T02:29:54.172Z,102829.66
2022-08-07T02:32:23.247Z,102829.31
2022-08-07T02:34:51.798Z,102828.84
2022-08-07T02:37:20.445Z,102826.78
2022-08-07T02:40:02.036Z,102816.47
2022-08-07T02:42:36.597Z,102819.59
2022-08-07T02:45:07.594Z,102823.81
2022-08-07T02:47:53.120Z,102826.59
2022-08-07T02:50:20.772Z,102828.91
2022-08-07T02:53:13.862Z,102823.41
2022-08-07T02:56:03.198Z,102825.94
2022-08-07T02:58:33.794Z,102821.72
2022-08-07T03:01:03.142Z,102826.72
2022-08-07T03:03:50.209Z,102823.44
2022-08-07T03:06:32.075Z,102821.44
2022-08-07T03:09:01.669Z,102821.53
2022-08-07T03:11:29.503Z,102816.41
2022-08-07T03:14:01.746Z,102824.66
2022-08-07T03:16:30.422Z,102814.75
2022-08-07T03:19:00.854Z,102811.84
2022-08-07T03:21:28.148Z,102819.88
2022-08-07T03:24:19.927Z,102815.34
2022-08-07T03:26:51.192Z,102815.56
2022-08-07T03:29:30.954Z,102817.81
2022-08-07T03:32:03.189Z,102821.09
2022-08-07T03:34:31.965Z,102821.69
2022-08-07T03:37:12.100Z,102817.00
2022-08-07T03:39:45.930Z,102820.94
2022-08-07T03:42:23.318Z,102815.34
2022-08-07T03:44:53.459Z,102810.56
2022-08-07T03:47:24.476Z,102816.59
2022-08-07T03:49:52.435Z,102814.59
2022-08-07T03:52:26.835Z,102810.28
2022-08-07T03:54:57.179Z,102814.41
2022-08-07T03:59:07.309Z,102817.88
2022-08-07T04:00:14.815Z,102818.50
2022-08-07T04:02:43.086Z,102815.34
2022-08-07T04:05:14.044Z,102809.50
2022-08-07T04:07:47.784Z,102809.06
2022-08-07T04:10:15.517Z,102814.44
2022-08-07T04:12:47.208Z,102813.03
2022-08-07T04:15:15.856Z,102813.25
2022-08-07T04:18:56.215Z,102820.94
2022-08-07T04:20:31.044Z,102812.88
2022-08-07T04:23:01.185Z,102810.56
2022-08-07T04:25:30.241Z,102822.28
2022-08-07T04:28:02.629Z,102812.69
2022-08-07T04:30:39.286Z,102820.06
2022-08-07T04:33:13.852Z,102826.28
2022-08-07T04:35:51.055Z,102824.19
2022-08-07T04:38:17.931Z,102825.00
2022-08-07T04:40:52.970Z,102830.38
2022-08-07T04:44:11.933Z,102833.06
2022-08-07T04:47:08.379Z,102833.31
2022-08-07T04:49:57.476Z,102835.38
2022-08-07T04:52:51.100Z,102831.06
2022-08-07T04:58:23.669Z,102839.81
2022-08-07T04:59:17.434Z,102833.22
2022-08-07T05:01:59.525Z,102838.41
2022-08-07T05:04:50.462Z,102838.16
2022-08-07T05:07:23.288Z,102833.38
2022-08-07T05:10:11.764Z,102830.38
2022-08-07T05:12:51.510Z,102837.16
2022-08-07T05:15:26.228Z,102840.56
2022-08-07T05:18:08.706Z,102840.72
2022-08-07T05:20:44.952Z,102839.34
2022-08-07T05:23:19.658Z,102843.09
2022-08-07T05:26:15.639Z,102842.75
2022-08-07T05:28:40.524Z,102834.22
2022-08-07T05:31:10.969Z,102839.63
2022-08-07T05:33:42.908Z,102844.63
2022-08-07T05:36:30.476Z,102845.09
2022-08-07T05:40:05.025Z,102841.78
2022-08-07T05:42:01.159Z,102841.78
2022-08-07T05:44:35.275Z,102830.25
2022-08-07T05:47:17.856Z,102823.56
2022-08-07T05:49:48.615Z,102823.78
2022-08-07T05:52:17.674Z,102831.28
2022-08-07T05:54:55.986Z,102828.28
2022-08-07T05:57:30.497Z,102831.84
2022-08-07T06:00:01.705Z,102837.13
2022-08-07T06:02:31.655Z,102844.97
2022-08-07T06:05:03.628Z,102849.28
2022-08-07T06:08:14.818Z,102849.44
2022-08-07T06:10:18.080Z,102843.19
2022-08-07T06:12:45.473Z,102843.91
2022-08-07T06:15:16.086Z,102844.72
2022-08-07T06:17:53.552Z,102839.94
2022-08-07T06:20:25.475Z,102838.97
2022-08-07T06:23:24.688Z,102834.47
2022-08-07T06:25:54.834Z,102841.81
2022-08-07T06:28:27.407Z,102842.88
2022-08-07T06:30:55.370Z,102848.03
2022-08-07T06:33:22.691Z,102842.78
2022-08-07T06:36:06.611Z,102844.97
2022-08-07T06:38:35.906Z,102853.78
2022-08-07T06:41:06.807Z,102849.41
2022-08-07T06:43:39.455Z,102846.63
2022-08-07T06:46:12.389Z,102838.91
2022-08-07T06:48:41.848Z,102842.25
2022-08-07T06:51:13.013Z,102848.50
2022-08-07T06:54:12.064Z,102844.41
2022-08-07T06:56:48.594Z,102848.50
2022-08-07T07:00:13.059Z,102847.41
2022-08-07T07:02:48.758Z,102850.16
2022-08-07T07:05:02.777Z,102843.34
2022-08-07T07:07:59.858Z,102838.41
2022-08-07T07:10:27.088Z,102832.69
2022-08-07T07:12:58.600Z,102844.69
2022-08-07T07:15:32.550Z,102850.94
2022-08-07T07:18:11.851Z,102849.59
2022-08-07T07:20:44.914Z,102858.47
2022-08-07T07:24:06.490Z,102851.88
2022-08-07T07:26:33.482Z,102862.94
2022-08-07T07:29:57.248Z,102859.38
2022-08-07T07:31:47.779Z,102866.91
2022-08-07T07:34:18.049Z,102866.81
2022-08-07T07:36:47.789Z,102862.69
2022-08-07T07:39:21.023Z,102859.03
2022-08-07T07:42:13.099Z,102852.69
2022-08-07T07:44:41.809Z,102849.25
2022-08-07T07:47:13.988Z,102853.50
2022-08-07T07:50:32.736Z,102849.56
2022-08-07T07:52:35.687Z,102836.41
2022-08-07T07:55:04.131Z,102844.56
2022-08-07T07:57:50.410Z,102843.47
2022-08-07T08:00:28.931Z,102833.53
2022-08-07T08:03:07.979Z,102844.41
2022-08-07T08:05:42.715Z,102835.53
2022-08-07T08:08:34.983Z,102832.22
2022-08-07T08:11:09.309Z,102829.03
2022-08-07T08:13:54.189Z,102833.63
2022-08-07T08:18:36.530Z,102840.25
2022-08-07T08:20:15.955Z,102830.44
2022-08-07T08:22:32.630Z,102830.28
2022-08-07T08:25:27.117Z,102826.91
2022-08-07T08:28:12.812Z,102819.22
2022-08-07T08:30:51.353Z,102823.72
2022-08-07T08:33:24.703Z,102825.78
2022-08-07T08:35:57.121Z,102821.88
2022-08-07T08:38:30.064Z,102816.28
2022-08-07T08:41:13.231Z,102814.03
2022-08-07T08:43:59.205Z,102820.72
2022-08-07T08:46:48.998Z,102818.88
2022-08-07T08:49:57.169Z,102820.19
2022-08-07T08:52:36.227Z,102812.19
2022-08-07T08:55:21.164Z,102812.34
2022-08-07T08:58:20.360Z,102804.84
2022-08-07T09:01:15.763Z,102811.53
2022-08-07T09:03:52.929Z,102806.94
2022-08-07T09:06:29.221Z,102808.06
2022-08-07T09:09:21.042Z,102813.22
2022-08-07T09:12:20.208Z,102797.81
2022-08-07T09:16:23.338Z,102797.31
2022-08-07T09:18:27.947Z,102794.31
2022-08-07T09:21:58.159Z,102792.03
2022-08-07T09:24:30.561Z,102797.13
2022-08-07T09:27:29.272Z,102792.75
2022-08-07T09:30:08.736Z,102799.47
2022-08-07T09:32:56.850Z,102800.06
2022-08-07T09:36:03.506Z,102799.25
2022-08-07T09:38:58.960Z,102788.81
2022-08-07T09:42:05.822Z,102789.16
2022-08-07T09:47:24.395Z,102789.16
2022-08-07T09:48:02.897Z,102780.28
2022-08-07T09:51:03.032Z,102784.00
2022-08-07T09:53:41.373Z,102784.66
2022-08-07T09:56:37.262Z,102773.69
2022-08-07T09:59:35.773Z,102773.31
2022-08-07T10:02:34.616Z,102767.28
2022-08-07T10:06:00.030Z,102771.25
2022-08-07T10:08:49.598Z,102777.88
2022-08-07T10:12:02.067Z,102767.66
2022-08-07T10:14:39.009Z,102762.63
2022-08-07T10:17:23.533Z,102758.81
2022-08-07T10:20:27.726Z,102759.84
2022-08-07T10:24:06.480Z,102751.03
2022-08-07T10:26:29.848Z,102746.34
2022-08-07T10:29:30.421Z,102750.09
2022-08-07T10:32:37.049Z,102738.38
2022-08-07T10:35:53.493Z,102738.84
2022-08-07T10:38:48.636Z,102739.31
2022-08-07T10:41:51.399Z,102726.84
2022-08-07T10:44:45.165Z,102729.06
2022-08-07T10:47:17.910Z,102737.50
2022-08-07T10:49:54.291Z,102735.25
2022-08-07T10:52:33.622Z,102726.47
2022-08-07T10:55:27.116Z,102719.44
2022-08-07T10:58:33.404Z,102710.75
2022-08-07T11:01:35.178Z,102714.88
2022-08-07T11:04:34.657Z,102703.19
2022-08-07T11:07:56.092Z,102701.88
2022-08-07T11:10:19.942Z,102695.78
2022-08-07T11:14:42.127Z,102688.78
2022-08-07T11:16:51.310Z,102692.00
2022-08-07T11:19:52.864Z,102691.84
2022-08-07T11:22:37.239Z,102686.72
2022-08-07T11:25:27.772Z,102678.13
2022-08-07T11:28:06.254Z,102676.13
2022-08-07T11:30:51.263Z,102678.75
2022-08-07T11:33:58.356Z,102677.94
2022-08-07T11:36:39.272Z,102680.13
2022-08-07T11:40:00.771Z,102675.47
2022-08-07T11:42:59.117Z,102670.47
2022-08-07T11:45:35.365Z,102670.25
2022-08-07T11:48:29.452Z,102670.47
2022-08-07T11:51:02.722Z,102667.63
2022-08-07T11:54:00.716Z,102662.44
2022-08-07T11:56:43.733Z,102656.41
2022-08-07T12:00:11.261Z,102651.50
2022-08-07T12:02:52.177Z,102651.13
2022-08-07T12:05:47.367Z,102654.84
2022-08-07T12:08:31.709Z,102653.34
2022-08-07T12:11:20.821Z,102642.03
2022-08-07T12:13:48.740Z,102638.97
2022-08-07T12:16:30.737Z,102640.94
2022-08-07T12:19:21.508Z,102653.03
2022-08-07T12:22:39.327Z,102643.88
2022-08-07T12:26:03.422Z,102657.25
2022-08-07T12:28:30.868Z,102651.13
2022-08-07T12:31:03.689Z,102646.63
2022-08-07T12:34:00.749Z,102654.94
2022-08-07T12:36:32.979Z,102642.59
2022-08-07T12:39:03.362Z,102643.22
2022-08-07T12:41:52.285Z,102640.34
2022-08-07T12:44:21.589Z,102639.34
2022-08-07T12:47:10.198Z,102633.97
2022-08-07T12:50:04.976Z,102634.69
2022-08-07T12:53:17.842Z,102638.69
2022-08-07T12:56:12.396Z,102630.69
2022-08-07T12:58:42.940Z,102637.44
2022-08-07T13:01:32.895Z,102639.03
2022-08-07T13:04:34.242Z,102630.31
2022-08-07T13:08:12.884Z,102638.25
2022-08-07T13:10:39.212Z,102626.69
2022-08-07T13:13:08.654Z,102622.94
2022-08-07T13:15:46.319Z,102623.63
2022-08-07T13:18:26.210Z,102627.19
2022-08-07T13:21:02.746Z,102622.13
2022-08-07T13:24:01.086Z,102623.31
2022-08-07T13:26:46.371Z,102623.91
2022-08-07T13:29:51.287Z,102619.59
2022-08-07T13:32:37.599Z,102606.63
2022-08-07T13:35:15.834Z,102611.25
2022-08-07T13:38:25.117Z,102608.09
2022-08-07T13:41:17.993Z,102609.34
2022-08-07T13:43:52.743Z,102605.47
2022-08-07T13:46:32.767Z,102598.38
2022-08-07T13:49:03.589Z,102592.31
2022-08-07T13:52:05.068Z,102595.44
2022-08-07T13:54:27.496Z,102595.19
2022-08-07T13:56:59.717Z,102603.44
2022-08-07T13:59:31.413Z,102607.41
2022-08-07T14:02:10.141Z,102600.09
2022-08-07T14:05:04.742Z,102590.59
2022-08-07T14:08:00.575Z,102595.69
2022-08-07T14:10:42.164Z,102595.03
2022-08-07T14:13:14.032Z,102599.47
2022-08-07T14:15:51.798Z,102588.16
2022-08-07T14:18:49.815Z,102588.69
2022-08-07T14:22:03.883Z,102590.72
2022-08-07T14:24:33.299Z,102584.16
2022-08-07T14:28:11.657Z,102592.44
2022-08-07T14:30:07.139Z,102586.22
2022-08-07T14:32:46.005Z,102593.03
2022-08-07T14:38:09.520Z,102599.31
2022-08-07T14:40:58.907Z,102601.44
2022-08-07T14:43:59.066Z,102601.94
2022-08-07T14:46:18.629Z,102601.94
2022-08-07T14:48:58.561Z,102590.66
2022-08-07T14:51:28.032Z,102592.88
2022-08-07T14:54:32.884Z,102589.53
2022-08-07T14:57:05.558Z,102580.91
2022-08-07T15:00:05.297Z,102574.38
2022-08-07T15:02:33.161Z,102583.22
2022-08-07T15:05:02.319Z,102582.88
2022-08-07T15:07:50.853Z,102582.59
2022-08-07T15:10:26.520Z,102572.03
2022-08-07T15:13:17.996Z,102571.09
2022-08-07T15:18:45.859Z,102580.59
2022-08-07T15:21:58.575Z,102576.00
2022-08-07T15:25:16.169Z,102564.13
2022-08-07T15:27:12.068Z,102565.63
2022-08-07T15:30:10.334Z,102576.63
2022-08-07T15:38:29.515Z,102564.63
2022-08-07T15:41:24.033Z,102561.38
2022-08-07T15:44:02.786Z,102560.91
2022-08-07T15:46:32.252Z,102559.13
2022-08-07T15:49:14.211Z,102563.53
2022-08-07T15:54:34.556Z,102552.91
2022-08-07T15:57:28.030Z,102554.56
2022-08-07T15:59:59.427Z,102550.50
2022-08-07T16:02:35.662Z,102543.41
2022-08-07T16:05:15.191Z,102545.31
2022-08-07T16:08:30.621Z,102542.97
2022-08-07T16:11:04.502Z,102541.00
2022-08-07T16:14:09.130Z,102534.53
2022-08-07T16:16:56.868Z,102538.63
2022-08-07T16:19:59.681Z,102537.88
2022-08-07T16:22:34.030Z,102536.22
2022-08-07T16:25:10.025Z,102539.84
2022-08-07T16:30:06.516Z,102538.69
2022-08-07T16:31:51.394Z,102536.66
2022-08-07T16:34:50.323Z,102535.50
2022-08-07T16:38:03.357Z,102537.53
2022-08-07T16:40:56.944Z,102548.50
2022-08-07T16:44:06.280Z,102534.94
2022-08-07T16:47:05.797Z,102537.53
2022-08-07T16:50:20.313Z,102538.22
2022-08-07T16:53:20.703Z,102531.22
2022-08-07T16:56:00.133Z,102542.72
2022-08-07T16:59:10.101Z,102540.09
2022-08-07T17:01:53.833Z,102530.66
2022-08-07T17:05:00.646Z,102527.22
2022-08-07T17:07:55.710Z,102536.25
2022-08-07T17:10:39.540Z,102540.81
2022-08-07T17:13:41.379Z,102539.75
2022-08-07T17:17:06.961Z,102539.22
2022-08-07T17:20:02.544Z,102539.41
2022-08-07T17:22:43.663Z,102531.63
2022-08-07T17:25:15.888Z,102528.09
2022-08-07T17:28:06.765Z,102533.88
2022-08-07T17:30:57.974Z,102532.00
2022-08-07T17:34:08.645Z,102531.75
2022-08-07T17:36:26.663Z,102531.31
2022-08-07T17:39:15.503Z,102532.09
2022-08-07T17:42:06.819Z,102539.41
2022-08-07T17:44:51.530Z,102536.41
2022-08-07T17:47:42.842Z,102528.97
2022-08-07T17:50:20.432Z,102539.25
2022-08-07T17:52:58.969Z,102532.09
2022-08-07T17:55:55.620Z,102531.97
2022-08-07T17:58:46.217Z,102527.31
2022-08-07T18:01:22.629Z,102531.03
2022-08-07T18:04:24.570Z,102534.88
2022-08-07T18:07:24.401Z,102533.94
2022-08-07T18:10:05.882Z,102536.34
2022-08-07T18:13:06.905Z,102541.41
2022-08-07T18:15:39.474Z,102542.75
2022-08-07T18:18:46.806Z,102545.72
2022-08-07T18:21:40.268Z,102545.06
2022-08-07T18:24:10.424Z,102547.50
2022-08-07T18:27:06.449Z,102535.59
2022-08-07T18:30:06.319Z,102544.75
2022-08-07T18:32:52.128Z,102550.06
2022-08-07T18:35:30.496Z,102548.84
2022-08-07T18:38:56.382Z,102562.00
2022-08-07T18:44:08.861Z,102561.06
2022-08-07T18:46:59.614Z,102560.41
2022-08-07T18:50:30.026Z,102558.25
2022-08-07T18:52:38.825Z,102558.38
2022-08-07T18:55:42.486Z,102563.28
2022-08-07T18:58:38.808Z,102565.09
2022-08-07T19:02:17.477Z,102575.81
2022-08-07T19:04:56.113Z,102573.94
2022-08-07T19:07:51.648Z,102578.56
2022-08-07T19:10:29.089Z,102576.41
2022-08-07T19:13:11.521Z,102574.91
2022-08-07T19:16:03.178Z,102579.38
2022-08-07T19:18:44.621Z,102577.03
2022-08-07T19:21:44.157Z,102588.50
2022-08-07T19:24:30.906Z,102577.69
2022-08-07T19:28:56.655Z,102580.59
2022-08-07T19:31:05.119Z,102590.59
2022-08-07T19:32:47.281Z,102592.41
2022-08-07T19:35:25.664Z,102598.25
2022-08-07T19:38:00.081Z,102598.00
2022-08-07T19:40:34.846Z,102604.28
2022-08-07T19:43:08.655Z,102609.59
2022-08-07T19:46:04.664Z,102610.56
2022-08-07T19:48:55.886Z,102616.19
2022-08-07T19:51:52.953Z,102619.66
2022-08-07T19:54:31.282Z,102623.63
2022-08-07T19:58:03.351Z,102623.94
2022-08-07T19:59:59.471Z,102626.66
2022-08-07T20:02:34.955Z,102621.06
2022-08-07T20:05:08.678Z,102621.19
2022-08-07T20:07:46.418Z,102622.31
2022-08-07T20:10:35.846Z,102621.03
2022-08-07T20:13:22.861Z,102622.47
2022-08-07T20:15:52.209Z,102627.47
2022-08-07T20:18:21.958Z,102638.19
2022-08-07T20:21:03.163Z,102633.84
2022-08-07T20:23:43.054Z,102640.75
2022-08-07T20:26:15.351Z,102640.50
2022-08-07T20:28:59.156Z,102638.44
2022-08-07T20:31:27.929Z,102630.34
2022-08-07T20:33:57.568Z,102630.41
2022-08-07T20:36:27.230Z,102632.94
2022-08-07T20:39:00.703Z,102635.44
2022-08-07T20:41:38.054Z,102633.06
2022-08-07T20:44:12.707Z,102636.09
2022-08-07T20:46:44.622Z,102636.97
2022-08-07T20:49:59.099Z,102633.47
2022-08-07T20:52:06.592Z,102633.25
2022-08-07T20:54:45.568Z,102633.78
2022-08-07T20:57:28.130Z,102633.56
2022-08-07T21:00:06.431Z,102639.31
2022-08-07T21:03:01.613Z,102639.84
2022-08-07T21:05:50.584Z,102639.09
2022-08-07T21:08:36.573Z,102640.47
2022-08-07T21:11:29.029Z,102644.88
2022-08-07T21:14:31.714Z,102659.53
2022-08-07T21:18:00.336Z,102657.69
2022-08-07T21:20:05.186Z,102646.59
2022-08-07T21:22:38.572Z,102648.50
2022-08-07T21:25:25.579Z,102641.22
2022-08-07T21:28:07.729Z,102642.34
2022-08-07T21:30:49.314Z,102645.91
2022-08-07T21:33:16.192Z,102647.28
2022-08-07T21:36:03.900Z,102640.25
2022-08-07T21:38:54.877Z,102641.88
2022-08-07T21:41:52.278Z,102648.41
2022-08-07T21:44:51.164Z,102646.78
2022-08-07T21:47:35.949Z,102642.19
2022-08-07T21:50:19.655Z,102646.81
2022-08-07T21:53:05.166Z,102642.72
2022-08-07T21:56:32.801Z,102644.63
2022-08-07T21:59:05.158Z,102650.06
2022-08-07T22:02:11.411Z,102652.25
2022-08-07T22:04:37.088Z,102648.97
2022-08-07T22:07:21.241Z,102654.16
2022-08-07T22:09:55.264Z,102653.34
2022-08-07T22:12:27.215Z,102661.72
2022-08-07T22:16:39.868Z,102654.06
2022-08-07T22:18:09.307Z,102656.50
2022-08-07T22:20:46.800Z,102662.44
2022-08-07T22:23:21.735Z,102664.03
2022-08-07T22:26:20.674Z,102662.38
2022-08-07T22:29:04.303Z,102662.63
2022-08-07T22:32:11.252Z,102661.00
2022-08-07T22:34:54.637Z,102672.91
2022-08-07T22:38:02.802Z,102674.81
2022-08-07T22:40:53.295Z,102663.44
2022-08-07T22:43:45.578Z,102671.28
2022-08-07T22:47:02.371Z,102665.06
2022-08-07T22:49:42.830Z,102678.59
2022-08-07T22:52:37.659Z,102673.72
2022-08-07T22:55:22.698Z,102685.06
2022-08-07T22:58:11.414Z,102680.97
2022-08-07T23:01:06.182Z,102689.31
2022-08-07T23:03:57.303Z,102692.47
2022-08-07T23:07:33.585Z,102687.53
2022-08-07T23:10:38.429Z,102689.09
2022-08-07T23:13:19.244Z,102690.03
2022-08-07T23:16:05.363Z,102690.59
2022-08-07T23:19:48.010Z,102696.97
2022-08-07T23:22:37.102Z,102689.84
2022-08-07T23:25:16.035Z,102690.91
2022-08-07T23:28:22.175Z,102684.31
2022-08-07T23:31:18.827Z,102691.13
2022-08-07T23:34:39.558Z,102692.81
2022-08-07T23:37:37.232Z,102692.81
2022-08-07T23:40:51.758Z,102684.97
2022-08-07T23:43:42.269Z,102686.00
2022-08-07T23:46:39.660Z,102684.50
2022-08-07T23:49:49.787Z,102695.50
2022-08-07T23:53:00.300Z,102698.69
2022-08-07T23:55:52.987Z,102688.66
2022-08-07T23:58:26.939Z,102691.66
